createdAt,value
2022-08-20T00:01:10.026Z,85.35
2022-08-20T00:03:40.272Z,85.46
2022-08-20T00:06:13.086Z,85.52
2022-08-20T00:08:40.857Z,86.13
2022-08-20T00:11:11.034Z,86.56
2022-08-20T00:13:43.569Z,86.40
2022-08-20T00:16:11.222Z,86.90
2022-08-20T00:18:39.553Z,86.66
2022-08-20T00:21:09.625Z,86.29
2022-08-20T00:23:38.728Z,87.22
2022-08-20T00:26:06.705Z,87.22
2022-08-20T00:28:34.001Z,88.18
2022-08-20T00:31:09.299Z,88.67
2022-08-20T00:33:37.482Z,88.01
2022-08-20T00:36:10.747Z,88.51
2022-08-20T00:38:40.123Z,88.82
2022-08-20T00:41:11.219Z,88.98
2022-08-20T00:43:44.387Z,90.27
2022-08-20T00:46:19.333Z,90.68
2022-08-20T00:48:49.174Z,89.97
2022-08-20T00:51:29.933Z,90.68
2022-08-20T00:54:04.341Z,90.82
2022-08-20T00:56:35.895Z,90.83
2022-08-20T00:59:11.221Z,91.50
2022-08-20T01:01:55.435Z,91.94
2022-08-20T01:04:26.319Z,91.91
2022-08-20T01:06:53.926Z,92.34
2022-08-20T01:09:49.562Z,92.19
2022-08-20T01:12:09.818Z,92.38
2022-08-20T01:14:45.687Z,91.63
2022-08-20T01:17:19.904Z,91.66
2022-08-20T01:19:55.556Z,92.04
2022-08-20T01:22:50.746Z,91.07
2022-08-20T01:25:34.098Z,92.33
2022-08-20T01:28:01.913Z,92.60
2022-08-20T01:30:31.487Z,91.99
2022-08-20T01:32:58.551Z,92.57
2022-08-20T01:35:26.291Z,92.94
2022-08-20T01:37:53.404Z,93.05
2022-08-20T01:40:47.340Z,93.14
2022-08-20T01:43:14.959Z,94.31
2022-08-20T01:45:44.775Z,94.80
2022-08-20T01:48:15.290Z,93.98
2022-08-20T01:50:50.911Z,94.88
2022-08-20T01:53:24.901Z,95.39
2022-08-20T01:55:51.932Z,95.42
2022-08-20T01:58:18.966Z,95.30
2022-08-20T02:00:46.704Z,95.47
2022-08-20T02:03:13.888Z,94.97
2022-08-20T02:05:41.024Z,95.99
2022-08-20T02:08:08.214Z,95.20
2022-08-20T02:10:35.784Z,96.07
2022-08-20T02:13:05.219Z,97.04
2022-08-20T02:15:35.818Z,96.61
2022-08-20T02:18:10.320Z,97.08
2022-08-20T02:20:37.879Z,96.54
2022-08-20T02:23:06.462Z,96.75
2022-08-20T02:25:37.291Z,97.08
2022-08-20T02:28:09.394Z,97.60
2022-08-20T02:30:42.382Z,97.48
2022-08-20T02:33:13.024Z,97.46
2022-08-20T02:35:42.750Z,97.90
2022-08-20T02:38:10.862Z,97.63
2022-08-20T02:40:38.682Z,97.94
2022-08-20T02:43:06.169Z,98.06
2022-08-20T02:45:43.624Z,98.76
2022-08-20T02:48:20.819Z,98.20
2022-08-20T02:50:54.893Z,98.67
2022-08-20T02:53:22.800Z,99.49
2022-08-20T02:55:50.643Z,99.62
2022-08-20T02:58:19.391Z,99.67
2022-08-20T03:00:47.153Z,99.93
2022-08-20T03:03:15.339Z,100.00
2022-08-20T03:05:44.931Z,100.00
2022-08-20T03:08:14.613Z,100.00
2022-08-20T03:10:43.923Z,100.00
2022-08-20T03:13:12.418Z,100.00
2022-08-20T03:15:42.096Z,100.00
2022-08-20T03:18:09.727Z,100.00
2022-08-20T03:20:36.853Z,100.00
2022-08-20T03:23:04.684Z,100.00
2022-08-20T03:25:33.149Z,100.00
2022-08-20T03:28:00.640Z,100.00
2022-08-20T03:30:29.657Z,100.00
2022-08-20T03:32:57.267Z,100.00
2022-08-20T03:35:26.218Z,100.00
2022-08-20T03:37:54.380Z,100.00
2022-08-20T03:40:29.255Z,100.00
2022-08-20T03:42:57.127Z,100.00
2022-08-20T03:45:25.814Z,100.00
2022-08-20T03:47:54.807Z,100.00
2022-08-20T03:50:26.056Z,100.00
2022-08-20T03:52:54.528Z,100.00
2022-08-20T03:55:24.173Z,100.00
2022-08-20T03:57:55.518Z,100.00
2022-08-20T04:00:30.018Z,100.00
2022-08-20T04:02:57.244Z,100.00
2022-08-20T04:05:25.397Z,100.00
2022-08-20T04:08:00.084Z,100.00
2022-08-20T04:10:32.004Z,100.00
2022-08-20T04:12:59.400Z,100.00
2022-08-20T04:15:27.058Z,100.00
2022-08-20T04:17:54.403Z,100.00
2022-08-20T04:20:25.842Z,100.00
2022-08-20T04:22:59.090Z,100.00
2022-08-20T04:25:29.835Z,100.00
2022-08-20T04:28:03.362Z,100.00
2022-08-20T04:30:30.709Z,100.00
2022-08-20T04:32:59.470Z,100.00
2022-08-20T04:35:26.828Z,100.00
2022-08-20T04:38:02.726Z,100.00
2022-08-20T04:40:48.855Z,100.00
2022-08-20T04:43:16.000Z,100.00
2022-08-20T04:45:44.740Z,100.00
2022-08-20T04:48:15.193Z,100.00
2022-08-20T04:50:45.069Z,100.00
2022-08-20T04:53:14.465Z,100.00
2022-08-20T04:55:43.194Z,100.00
2022-08-20T04:58:14.022Z,100.00
2022-08-20T05:00:41.198Z,100.00
2022-08-20T05:03:08.908Z,100.00
2022-08-20T05:05:36.142Z,100.00
2022-08-20T05:08:04.141Z,100.00
2022-08-20T05:10:31.313Z,100.00
2022-08-20T05:12:58.780Z,100.00
2022-08-20T05:15:26.352Z,100.00
2022-08-20T05:18:00.610Z,100.00
2022-08-20T05:20:31.292Z,100.00
2022-08-20T05:22:59.441Z,100.00
2022-08-20T05:25:30.419Z,100.00
2022-08-20T05:28:09.154Z,100.00
2022-08-20T05:30:38.500Z,100.00
2022-08-20T05:33:08.723Z,100.00
2022-08-20T05:35:41.138Z,100.00
2022-08-20T05:38:11.748Z,100.00
2022-08-20T05:40:41.498Z,100.00
2022-08-20T05:43:09.100Z,100.00
2022-08-20T05:45:38.877Z,100.00
2022-08-20T05:48:13.123Z,100.00
2022-08-20T05:50:42.667Z,100.00
2022-08-20T05:53:09.798Z,100.00
2022-08-20T05:55:37.335Z,100.00
2022-08-20T05:58:07.284Z,100.00
2022-08-20T06:00:35.663Z,100.00
2022-08-20T06:03:21.154Z,100.00
2022-08-20T06:05:48.223Z,100.00
2022-08-20T06:08:16.758Z,100.00
2022-08-20T06:10:44.255Z,100.00
2022-08-20T06:13:13.809Z,99.57
2022-08-20T06:15:41.547Z,99.86
2022-08-20T06:18:10.275Z,98.91
2022-08-20T06:20:54.540Z,96.15
2022-08-20T06:23:23.156Z,97.76
2022-08-20T06:25:50.398Z,96.81
2022-08-20T06:28:18.645Z,96.21
2022-08-20T06:30:45.930Z,96.42
2022-08-20T06:33:12.988Z,93.96
2022-08-20T06:35:40.226Z,95.96
2022-08-20T06:38:09.784Z,94.00
2022-08-20T06:40:36.799Z,94.79
2022-08-20T06:43:04.166Z,92.39
2022-08-20T06:45:32.859Z,92.14
2022-08-20T06:48:05.050Z,90.49
2022-08-20T06:50:44.452Z,89.56
2022-08-20T06:53:17.683Z,89.31
2022-08-20T06:55:49.015Z,87.78
2022-08-20T06:58:36.906Z,86.18
2022-08-20T07:01:09.577Z,84.59
2022-08-20T07:03:39.068Z,85.58
2022-08-20T07:06:07.335Z,85.42
2022-08-20T07:08:35.475Z,86.26
2022-08-20T07:11:02.769Z,88.18
2022-08-20T07:13:30.515Z,86.16
2022-08-20T07:15:57.675Z,87.13
2022-08-20T07:18:28.829Z,87.86
2022-08-20T07:20:57.754Z,88.03
2022-08-20T07:23:26.001Z,87.39
2022-08-20T07:25:53.827Z,89.49
2022-08-20T07:28:23.822Z,85.66
2022-08-20T07:31:13.869Z,86.02
2022-08-20T07:33:44.525Z,88.48
2022-08-20T07:36:12.790Z,88.33
2022-08-20T07:38:40.135Z,89.59
2022-08-20T07:41:10.072Z,88.55
2022-08-20T07:43:38.239Z,91.13
2022-08-20T07:46:08.934Z,92.86
2022-08-20T07:48:40.090Z,95.80
2022-08-20T07:51:09.174Z,97.83
2022-08-20T07:53:38.918Z,100.00
2022-08-20T07:56:08.691Z,100.00
2022-08-20T07:58:36.707Z,100.00
2022-08-20T08:01:05.965Z,100.00
2022-08-20T08:03:39.670Z,100.00
2022-08-20T08:06:09.539Z,100.00
2022-08-20T08:08:38.532Z,100.00
2022-08-20T08:11:06.892Z,100.00
2022-08-20T08:13:38.098Z,100.00
2022-08-20T08:16:06.451Z,100.00
2022-08-20T08:18:41.696Z,100.00
2022-08-20T08:21:12.877Z,100.00
2022-08-20T08:23:44.831Z,100.00
2022-08-20T08:26:15.981Z,100.00
2022-08-20T08:28:46.466Z,100.00
2022-08-20T08:31:14.524Z,100.00
2022-08-20T08:33:42.421Z,100.00
2022-08-20T08:36:12.542Z,100.00
2022-08-20T08:38:43.581Z,100.00
2022-08-20T08:41:34.139Z,100.00
2022-08-20T08:44:09.358Z,100.00
2022-08-20T08:46:41.758Z,100.00
2022-08-20T08:49:16.223Z,98.55
2022-08-20T08:51:50.193Z,100.00
2022-08-20T08:54:22.157Z,100.00
2022-08-20T08:56:50.618Z,100.00
2022-08-20T08:59:20.229Z,100.00
2022-08-20T09:01:54.413Z,100.00
2022-08-20T09:04:32.375Z,100.00
2022-08-20T09:07:02.842Z,98.37
2022-08-20T09:09:35.500Z,97.85
2022-08-20T09:12:05.187Z,96.79
2022-08-20T09:14:32.359Z,95.69
2022-08-20T09:16:59.417Z,96.63
2022-08-20T09:19:26.478Z,95.86
2022-08-20T09:21:53.564Z,100.00
2022-08-20T09:24:20.674Z,100.00
2022-08-20T09:26:47.743Z,100.00
2022-08-20T09:29:15.090Z,100.00
2022-08-20T09:31:42.270Z,97.73
2022-08-20T09:34:09.503Z,96.44
2022-08-20T09:36:36.567Z,96.49
2022-08-20T09:39:03.731Z,93.90
2022-08-20T09:41:33.672Z,92.32
2022-08-20T09:44:02.270Z,90.08
2022-08-20T09:46:29.307Z,92.29
2022-08-20T09:48:56.372Z,95.35
2022-08-20T09:51:23.527Z,93.99
2022-08-20T09:53:50.726Z,95.66
2022-08-20T09:56:18.140Z,92.05
2022-08-20T09:58:49.980Z,92.38
2022-08-20T10:01:18.880Z,93.27
2022-08-20T10:03:48.699Z,91.68
2022-08-20T10:06:17.755Z,92.06
2022-08-20T10:08:44.860Z,92.68
2022-08-20T10:11:12.066Z,94.33
2022-08-20T10:13:39.239Z,93.42
2022-08-20T10:16:06.723Z,92.67
2022-08-20T10:18:35.047Z,87.79
2022-08-20T10:21:02.135Z,92.31
2022-08-20T10:23:29.274Z,89.23
2022-08-20T10:25:56.306Z,90.10
2022-08-20T10:28:23.528Z,88.38
2022-08-20T10:30:50.626Z,90.29
2022-08-20T10:33:17.814Z,85.23
2022-08-20T10:35:44.919Z,87.51
2022-08-20T10:38:12.010Z,87.84
2022-08-20T10:40:39.129Z,87.45
2022-08-20T10:43:06.219Z,85.08
2022-08-20T10:45:33.347Z,84.88
2022-08-20T10:48:01.392Z,82.66
2022-08-20T10:50:30.235Z,81.63
2022-08-20T10:52:58.196Z,83.24
2022-08-20T10:55:25.269Z,79.04
2022-08-20T10:57:52.331Z,78.86
2022-08-20T11:00:19.830Z,79.68
2022-08-20T11:02:46.989Z,80.87
2022-08-20T11:05:14.602Z,81.42
2022-08-20T11:07:55.565Z,84.43
2022-08-20T11:10:26.528Z,84.55
2022-08-20T11:12:53.626Z,83.34
2022-08-20T11:15:20.698Z,82.37
2022-08-20T11:17:47.792Z,83.15
2022-08-20T11:20:17.352Z,78.58
2022-08-20T11:22:44.423Z,76.96
2022-08-20T11:25:11.950Z,76.90
2022-08-20T11:27:46.896Z,77.18
2022-08-20T11:30:24.639Z,78.90
2022-08-20T11:32:52.314Z,75.79
2022-08-20T11:38:08.753Z,75.20
2022-08-20T11:40:35.855Z,76.36
2022-08-20T11:43:18.701Z,78.29
2022-08-20T11:45:49.591Z,74.29
2022-08-20T11:48:17.892Z,72.66
2022-08-20T11:50:45.731Z,68.06
2022-08-20T11:53:12.938Z,67.97
2022-08-20T11:55:42.353Z,69.16
2022-08-20T11:58:10.215Z,70.01
2022-08-20T12:00:37.373Z,70.96
2022-08-20T12:03:09.025Z,68.61
2022-08-20T12:05:37.984Z,67.96
2022-08-20T12:08:05.657Z,68.23
2022-08-20T12:10:32.840Z,66.29
2022-08-20T12:13:00.075Z,66.04
2022-08-20T12:15:29.813Z,65.45
2022-08-20T12:17:56.869Z,66.87
2022-08-20T12:20:24.655Z,62.16
2022-08-20T12:22:53.850Z,63.44
2022-08-20T12:25:20.991Z,64.93
2022-08-20T12:27:48.031Z,67.27
2022-08-20T12:30:19.768Z,65.04
2022-08-20T12:32:47.568Z,65.27
2022-08-20T12:35:16.596Z,64.63
2022-08-20T12:37:44.829Z,61.81
2022-08-20T12:40:21.617Z,61.04
2022-08-20T12:43:01.715Z,60.44
2022-08-20T12:45:29.087Z,57.68
2022-08-20T12:48:02.060Z,59.12
2022-08-20T12:50:31.765Z,59.86
2022-08-20T12:52:59.881Z,61.15
2022-08-20T12:55:27.351Z,60.67
2022-08-20T12:58:00.190Z,60.75
2022-08-20T13:00:34.538Z,61.92
2022-08-20T13:03:04.374Z,62.55
2022-08-20T13:05:32.587Z,61.13
2022-08-20T13:08:00.002Z,59.96
2022-08-20T13:10:33.063Z,60.60
2022-08-20T13:13:02.529Z,60.90
2022-08-20T13:15:33.144Z,62.32
2022-08-20T13:18:03.295Z,62.64
2022-08-20T13:20:34.067Z,63.81
2022-08-20T13:23:04.294Z,62.64
2022-08-20T13:25:32.599Z,60.90
2022-08-20T13:28:04.272Z,60.33
2022-08-20T13:30:33.195Z,60.54
2022-08-20T13:33:00.576Z,61.31
2022-08-20T13:35:27.791Z,60.13
2022-08-20T13:37:54.974Z,59.38
2022-08-20T13:40:22.207Z,58.79
2022-08-20T13:42:49.321Z,57.25
2022-08-20T13:45:16.672Z,56.94
2022-08-20T13:47:44.144Z,56.62
2022-08-20T13:50:14.163Z,57.27
2022-08-20T13:52:42.762Z,57.02
2022-08-20T13:55:12.619Z,56.20
2022-08-20T13:57:41.344Z,55.71
2022-08-20T14:00:12.912Z,58.22
2022-08-20T14:02:41.467Z,53.91
2022-08-20T14:05:09.358Z,53.31
2022-08-20T14:07:37.957Z,54.11
2022-08-20T14:10:09.230Z,54.03
2022-08-20T14:12:36.477Z,54.29
2022-08-20T14:15:04.514Z,54.76
2022-08-20T14:17:34.168Z,54.00
2022-08-20T14:20:13.674Z,53.45
2022-08-20T14:22:42.543Z,51.46
2022-08-20T14:25:12.926Z,52.76
2022-08-20T14:27:41.203Z,53.33
2022-08-20T14:30:12.869Z,51.39
2022-08-20T14:32:40.187Z,51.66
2022-08-20T14:35:08.304Z,52.21
2022-08-20T14:37:39.090Z,51.34
2022-08-20T14:40:11.305Z,51.40
2022-08-20T14:42:39.219Z,50.62
2022-08-20T14:45:08.268Z,49.81
2022-08-20T14:47:38.736Z,50.14
2022-08-20T14:50:13.370Z,50.22
2022-08-20T14:52:41.242Z,50.99
2022-08-20T14:55:12.227Z,50.54
2022-08-20T14:57:40.171Z,50.03
2022-08-20T15:00:10.190Z,51.33
2022-08-20T15:02:37.896Z,48.56
2022-08-20T15:05:07.170Z,46.97
2022-08-20T15:07:38.020Z,48.67
2022-08-20T15:10:08.731Z,50.10
2022-08-20T15:12:35.977Z,47.53
2022-08-20T15:15:15.644Z,48.95
2022-08-20T15:17:49.155Z,47.61
2022-08-20T15:20:20.570Z,48.63
2022-08-20T15:22:49.063Z,48.46
2022-08-20T15:25:19.847Z,47.14
2022-08-20T15:27:47.592Z,48.07
2022-08-20T15:30:21.021Z,46.15
2022-08-20T15:32:54.146Z,46.78
2022-08-20T15:35:28.346Z,45.39
2022-08-20T15:37:57.832Z,45.18
2022-08-20T15:40:28.750Z,49.28
2022-08-20T15:43:00.824Z,48.56
2022-08-20T15:45:28.743Z,45.74
2022-08-20T15:48:15.303Z,45.14
2022-08-20T15:50:48.082Z,46.22
2022-08-20T15:53:33.451Z,44.52
2022-08-20T15:56:36.776Z,45.75
2022-08-20T15:59:18.560Z,44.22
2022-08-20T16:01:52.947Z,42.36
2022-08-20T16:04:46.651Z,42.64
2022-08-20T16:07:21.081Z,42.40
2022-08-20T16:10:26.436Z,41.73
2022-08-20T16:12:57.835Z,42.00
2022-08-20T16:15:35.573Z,39.33
2022-08-20T16:18:08.337Z,38.16
2022-08-20T16:20:47.967Z,37.76
2022-08-20T16:23:17.118Z,37.24
2022-08-20T16:26:13.199Z,36.56
2022-08-20T16:28:46.169Z,35.60
2022-08-20T16:31:18.909Z,34.81
2022-08-20T16:34:05.833Z,34.51
2022-08-20T16:37:04.365Z,33.77
2022-08-20T16:39:48.494Z,33.10
2022-08-20T16:42:23.242Z,32.54
2022-08-20T16:44:54.210Z,32.46
2022-08-20T16:47:28.224Z,34.63
2022-08-20T16:50:02.435Z,32.70
2022-08-20T16:52:30.047Z,33.99
2022-08-20T16:54:57.341Z,34.01
2022-08-20T16:57:27.685Z,33.91
2022-08-20T17:00:18.864Z,33.50
2022-08-20T17:03:01.200Z,34.38
2022-08-20T17:05:50.060Z,36.04
2022-08-20T17:08:29.845Z,37.20
2022-08-20T17:11:17.196Z,36.86
2022-08-20T17:13:48.429Z,36.35
2022-08-20T17:16:15.435Z,37.05
2022-08-20T17:18:52.059Z,36.49
2022-08-20T17:21:38.086Z,35.87
2022-08-20T17:24:16.812Z,34.64
2022-08-20T17:26:50.744Z,37.85
2022-08-20T17:29:25.260Z,40.90
2022-08-20T17:31:57.849Z,42.11
2022-08-20T17:34:31.560Z,43.94
2022-08-20T17:37:05.123Z,47.14
2022-08-20T17:39:32.288Z,48.35
2022-08-20T17:42:09.826Z,48.01
2022-08-20T17:44:42.257Z,49.02
2022-08-20T17:47:13.823Z,51.01
2022-08-20T17:50:01.182Z,51.20
2022-08-20T17:52:46.671Z,51.70
2022-08-20T17:55:13.858Z,50.80
2022-08-20T17:57:44.742Z,52.07
2022-08-20T18:00:17.567Z,52.30
2022-08-20T18:02:44.749Z,52.81
2022-08-20T18:05:19.083Z,54.81
2022-08-20T18:08:10.119Z,55.12
2022-08-20T18:10:52.551Z,53.95
2022-08-20T18:13:27.087Z,55.13
2022-08-20T18:15:57.780Z,56.09
2022-08-20T18:18:56.508Z,56.27
2022-08-20T18:21:56.964Z,57.84
2022-08-20T18:24:39.483Z,56.51
2022-08-20T18:27:13.896Z,57.22
2022-08-20T18:29:44.894Z,59.20
2022-08-20T18:32:38.036Z,58.34
2022-08-20T18:35:17.474Z,59.93
2022-08-20T18:37:44.734Z,59.18
2022-08-20T18:40:38.742Z,60.24
2022-08-20T18:43:14.464Z,61.07
2022-08-20T18:45:42.007Z,62.41
2022-08-20T18:48:21.228Z,61.60
2022-08-20T18:50:54.954Z,61.40
2022-08-20T18:53:33.704Z,61.75
2022-08-20T18:56:05.846Z,62.81
2022-08-20T18:58:54.178Z,62.40
2022-08-20T19:01:21.429Z,64.33
2022-08-20T19:03:51.645Z,64.19
2022-08-20T19:07:07.534Z,64.98
2022-08-20T19:10:03.416Z,66.11
2022-08-20T19:13:03.894Z,66.97
2022-08-20T19:15:36.094Z,67.03
2022-08-20T19:18:09.557Z,67.27
2022-08-20T19:20:40.954Z,68.30
2022-08-20T19:23:20.280Z,68.82
2022-08-20T19:26:04.476Z,68.89
2022-08-20T19:28:42.636Z,68.42
2022-08-20T19:31:16.099Z,69.37
2022-08-20T19:33:47.338Z,70.63
2022-08-20T19:36:28.242Z,70.23
2022-08-20T19:39:01.690Z,69.99
2022-08-20T19:41:39.411Z,70.69
2022-08-20T19:44:07.026Z,71.23
2022-08-20T19:46:39.743Z,72.27
2022-08-20T19:49:12.669Z,72.92
2022-08-20T19:52:23.281Z,73.55
2022-08-20T19:54:53.847Z,73.91
2022-08-20T19:57:23.357Z,74.53
2022-08-20T20:00:05.317Z,75.63
2022-08-20T20:02:34.855Z,76.55
2022-08-20T20:05:10.254Z,76.70
2022-08-20T20:07:42.152Z,77.69
2022-08-20T20:10:32.758Z,76.75
2022-08-20T20:13:14.587Z,77.34
2022-08-20T20:15:42.674Z,77.42
2022-08-20T20:18:11.565Z,76.98
2022-08-20T20:20:57.722Z,76.82
2022-08-20T20:23:45.673Z,78.24
2022-08-20T20:26:17.486Z,79.51
2022-08-20T20:28:51.444Z,79.95
2022-08-20T20:31:30.146Z,80.81
2022-08-20T20:34:02.070Z,80.75
2022-08-20T20:36:38.579Z,79.69
2022-08-20T20:39:23.257Z,79.99
2022-08-20T20:41:52.889Z,80.41
2022-08-20T20:44:24.472Z,81.00
2022-08-20T20:46:57.365Z,81.85
2022-08-20T20:49:28.268Z,82.59
2022-08-20T20:52:15.176Z,83.15
2022-08-20T20:54:44.880Z,83.85
2022-08-20T20:57:17.932Z,83.53
2022-08-20T20:59:48.816Z,83.49
2022-08-20T21:02:16.873Z,82.97
2022-08-20T21:04:44.671Z,82.96
2022-08-20T21:07:15.083Z,83.11
2022-08-20T21:09:43.348Z,82.57
2022-08-20T21:12:12.164Z,83.79
2022-08-20T21:14:40.032Z,83.96
2022-08-20T21:17:09.891Z,83.88
2022-08-20T21:19:44.951Z,84.62
2022-08-20T21:22:12.486Z,84.76
2022-08-20T21:24:39.527Z,84.55
2022-08-20T21:27:08.086Z,84.34
2022-08-20T21:29:35.639Z,84.75
2022-08-20T21:32:03.176Z,84.92
2022-08-20T21:34:30.275Z,85.25
2022-08-20T21:36:57.487Z,85.60
2022-08-20T21:39:26.414Z,85.70
2022-08-20T21:41:56.080Z,86.15
2022-08-20T21:44:26.702Z,86.32
2022-08-20T21:46:57.295Z,86.70
2022-08-20T21:49:25.381Z,87.38
2022-08-20T21:51:52.858Z,87.24
2022-08-20T21:54:20.784Z,88.29
2022-08-20T21:56:51.736Z,87.78
2022-08-20T21:59:21.563Z,87.98
2022-08-20T22:01:48.874Z,87.89
2022-08-20T22:04:15.921Z,87.96
2022-08-20T22:06:43.597Z,88.10
2022-08-20T22:09:11.167Z,88.48
2022-08-20T22:11:38.492Z,89.29
2022-08-20T22:14:08.079Z,89.49
2022-08-20T22:16:35.547Z,89.67
2022-08-20T22:19:03.311Z,89.56
2022-08-20T22:21:33.152Z,89.85
2022-08-20T22:24:03.334Z,91.11
2022-08-20T22:26:34.752Z,91.60
2022-08-20T22:29:02.688Z,91.14
2022-08-20T22:31:33.093Z,90.22
2022-08-20T22:34:00.968Z,90.58
2022-08-20T22:36:28.987Z,90.55
2022-08-20T22:38:56.086Z,91.32
2022-08-20T22:41:23.861Z,91.34
2022-08-20T22:43:56.575Z,91.34
2022-08-20T22:46:32.032Z,92.07
2022-08-20T22:48:59.542Z,91.76
2022-08-20T22:51:34.746Z,91.52
2022-08-20T22:54:05.456Z,90.99
2022-08-20T22:56:32.727Z,91.09
2022-08-20T22:59:02.003Z,92.31
2022-08-20T23:01:29.452Z,92.46
2022-08-20T23:04:19.319Z,92.58
2022-08-20T23:06:46.367Z,93.11
2022-08-20T23:09:13.396Z,92.76
2022-08-20T23:11:41.359Z,93.44
2022-08-20T23:14:08.412Z,94.39
2022-08-20T23:16:38.380Z,95.16
2022-08-20T23:19:06.416Z,94.33
2022-08-20T23:21:33.690Z,94.37
2022-08-20T23:24:00.741Z,94.24
2022-08-20T23:26:27.840Z,95.48
2022-08-20T23:28:54.906Z,95.62
2022-08-20T23:31:22.362Z,95.64
2022-08-20T23:33:49.458Z,95.84
2022-08-20T23:36:19.963Z,95.71
2022-08-20T23:38:47.039Z,96.17
2022-08-20T23:41:14.136Z,96.13
2022-08-20T23:43:41.266Z,96.77
2022-08-20T23:46:08.867Z,96.24
2022-08-20T23:48:35.990Z,95.94
2022-08-20T23:51:03.080Z,96.61
2022-08-20T23:53:30.208Z,96.89
2022-08-20T23:55:57.259Z,96.79
2022-08-20T23:58:24.420Z,96.85
